Time,TemperatureF,DewpointF,PressureIn,WindDirection,WindDirectionDegrees,WindSpeedMPH,WindSpeedGustMPH,Humidity,HourlyPrecipIn,Conditions,Clouds,dailyrainin,SoftwareType,DateUTC
2013-06-13 00:02:00,73.0,23.0,-100.00,SW,218,5.0,20.0,14,-99.99,,,-99.99,,2013-06-13 06:02:00,
2013-06-13 00:11:00,73.0,23.0,-100.00,SW,218,5.0,20.0,14,-99.99,,,-99.99,,2013-06-13 06:11:00,
2013-06-13 00:22:00,74.0,23.0,-100.00,SW,215,6.0,20.0,14,-99.99,,,-99.99,,2013-06-13 06:22:00,
2013-06-13 00:33:00,74.0,23.0,-100.00,SW,228,13.0,27.0,15,-99.99,,,-99.99,,2013-06-13 06:33:00,
2013-06-13 00:44:00,74.0,23.0,-100.00,SSW,209,12.0,33.0,15,-99.99,,,-99.99,,2013-06-13 06:44:00,
2013-06-13 00:52:00,74.0,23.0,-100.00,SSW,209,12.0,33.0,15,-99.99,,,-99.99,,2013-06-13 06:52:00,
2013-06-13 01:01:00,74.0,23.0,-100.00,SSW,200,7.0,36.0,15,-99.99,,,-99.99,,2013-06-13 07:01:00,
2013-06-13 01:11:00,73.0,24.0,-100.00,WSW,247,5.0,13.0,15,-99.99,,,-99.99,,2013-06-13 07:11:00,
2013-06-13 01:22:00,73.0,24.0,-100.00,WSW,241,12.0,28.0,15,-99.99,,,-99.99,,2013-06-13 07:22:00,
2013-06-13 01:33:00,72.0,25.0,-100.00,WSW,241,7.0,15.0,17,-99.99,,,-99.99,,2013-06-13 07:33:00,
2013-06-13 01:42:00,73.0,26.0,-100.00,West,273,13.0,23.0,17,-99.99,,,-99.99,,2013-06-13 07:42:00,
2013-06-13 01:52:00,72.0,26.0,-100.00,West,276,13.0,31.0,17,-99.99,,,-99.99,,2013-06-13 07:52:00,
2013-06-13 02:01:00,72.0,27.0,-100.00,SW,221,10.0,28.0,18,-99.99,,,-99.99,,2013-06-13 08:01:00,
2013-06-13 02:11:00,71.0,27.0,-100.00,West,262,7.0,18.0,18,-99.99,,,-99.99,,2013-06-13 08:11:00,
2013-06-13 02:22:00,71.0,27.0,-100.00,West,262,7.0,18.0,18,-99.99,,,-99.99,,2013-06-13 08:22:00,
2013-06-13 02:32:00,71.0,27.0,-100.00,West,279,4.0,12.0,19,-99.99,,,-99.99,,2013-06-13 08:32:00,
2013-06-13 02:42:00,70.0,27.0,-100.00,SSW,208,3.0,5.0,20,-99.99,,,-99.99,,2013-06-13 08:42:00,
2013-06-13 02:52:00,70.0,27.0,-100.00,SSW,208,3.0,5.0,20,-99.99,,,-99.99,,2013-06-13 08:52:00,
2013-06-13 03:01:00,69.0,28.0,-100.00,SSW,192,9.0,11.0,20,-99.99,,,-99.99,,2013-06-13 09:01:00,
2013-06-13 03:11:00,70.0,28.0,-100.00,WSW,254,13.0,21.0,20,-99.99,,,-99.99,,2013-06-13 09:11:00,
2013-06-13 03:22:00,70.0,28.0,-100.00,WSW,254,13.0,21.0,20,-99.99,,,-99.99,,2013-06-13 09:22:00,
2013-06-13 03:32:00,71.0,28.0,-100.00,WNW,288,15.0,25.0,20,-99.99,,,-99.99,,2013-06-13 09:32:00,
2013-06-13 03:42:00,70.0,28.0,-100.00,SW,234,8.0,16.0,20,-99.99,,,-99.99,,2013-06-13 09:42:00,
2013-06-13 03:52:00,70.0,28.0,-100.00,SW,234,8.0,16.0,20,-99.99,,,-99.99,,2013-06-13 09:52:00,
2013-06-13 04:01:00,70.0,29.0,-100.00,West,268,9.0,17.0,21,-99.99,,,-99.99,,2013-06-13 10:01:00,
2013-06-13 04:11:00,69.0,29.0,-100.00,West,271,11.0,16.0,21,-99.99,,,-99.99,,2013-06-13 10:11:00,
2013-06-13 04:22:00,69.0,29.0,-100.00,West,271,11.0,16.0,21,-99.99,,,-99.99,,2013-06-13 10:22:00,
2013-06-13 04:33:00,68.0,29.0,-100.00,SW,234,3.0,11.0,23,-99.99,,,-99.99,,2013-06-13 10:33:00,
2013-06-13 04:42:00,67.0,29.0,-100.00,West,270,5.0,11.0,24,-99.99,,,-99.99,,2013-06-13 10:42:00,
2013-06-13 04:53:00,67.0,29.0,-100.00,West,268,10.0,17.0,24,-99.99,,,-99.99,,2013-06-13 10:53:00,
2013-06-13 05:01:00,69.0,29.0,-100.00,West,270,12.0,21.0,22,-99.99,,,-99.99,,2013-06-13 11:01:00,
2013-06-13 05:11:00,70.0,29.0,-100.00,West,270,13.0,38.0,21,-99.99,,,-99.99,,2013-06-13 11:11:00,
2013-06-13 05:23:00,68.0,29.0,-100.00,West,275,17.0,27.0,23,-99.99,,,-99.99,,2013-06-13 11:23:00,
2013-06-13 05:32:00,68.0,29.0,-100.00,West,275,17.0,27.0,23,-99.99,,,-99.99,,2013-06-13 11:32:00,
2013-06-13 05:42:00,69.0,29.0,-100.00,West,272,18.0,29.0,22,-99.99,,,-99.99,,2013-06-13 11:42:00,
2013-06-13 05:52:00,69.0,30.0,-100.00,West,275,19.0,33.0,23,-99.99,,,-99.99,,2013-06-13 11:52:00,
2013-06-13 06:01:00,69.0,30.0,-100.00,West,272,20.0,31.0,23,-99.99,,,-99.99,,2013-06-13 12:01:00,
2013-06-13 06:11:00,68.0,30.0,-100.00,West,274,19.0,37.0,23,-99.99,,,-99.99,,2013-06-13 12:11:00,
2013-06-13 06:22:00,67.0,30.0,-100.00,West,280,14.0,23.0,25,-99.99,,,-99.99,,2013-06-13 12:22:00,
2013-06-13 06:34:00,66.0,31.0,-100.00,West,271,12.0,20.0,26,-99.99,,,-99.99,,2013-06-13 12:34:00,
2013-06-13 06:42:00,67.0,30.0,-100.00,West,273,12.0,19.0,25,-99.99,,,-99.99,,2013-06-13 12:42:00,
2013-06-13 06:52:00,68.0,30.0,-100.00,WSW,241,20.0,32.0,23,-99.99,,,-99.99,,2013-06-13 12:52:00,
2013-06-13 07:01:00,68.0,30.0,-100.00,West,272,19.0,31.0,23,-99.99,,,-99.99,,2013-06-13 13:01:00,
2013-06-13 07:11:00,68.0,30.0,-100.00,West,272,19.0,31.0,23,-99.99,,,-99.99,,2013-06-13 13:11:00,
2013-06-13 07:21:00,68.0,30.0,-100.00,WSW,238,18.0,34.0,23,-99.99,,,-99.99,,2013-06-13 13:21:00,
2013-06-13 07:32:00,69.0,29.0,-100.00,WSW,238,19.0,49.0,23,-99.99,,,-99.99,,2013-06-13 13:32:00,
2013-06-13 07:43:00,69.0,29.0,-100.00,SW,224,20.0,41.0,22,-99.99,,,-99.99,,2013-06-13 13:43:00,
2013-06-13 07:53:00,69.0,29.0,-100.00,SW,224,20.0,41.0,22,-99.99,,,-99.99,,2013-06-13 13:53:00,
2013-06-13 08:01:00,69.0,29.0,-100.00,SW,236,12.0,38.0,22,-99.99,,,-99.99,,2013-06-13 14:01:00,
2013-06-13 08:11:00,69.0,29.0,-100.00,SW,236,12.0,38.0,22,-99.99,,,-99.99,,2013-06-13 14:11:00,
2013-06-13 08:22:00,70.0,29.0,-100.00,SW,214,13.0,35.0,22,-99.99,,,-99.99,,2013-06-13 14:22:00,
2013-06-13 08:33:00,69.0,30.0,-100.00,West,267,15.0,32.0,22,-99.99,,,-99.99,,2013-06-13 14:33:00,
2013-06-13 08:43:00,69.0,30.0,-100.00,West,277,11.0,29.0,22,-99.99,,,-99.99,,2013-06-13 14:43:00,
2013-06-13 08:53:00,69.0,30.0,-100.00,West,277,11.0,29.0,22,-99.99,,,-99.99,,2013-06-13 14:53:00,
2013-06-13 09:01:00,69.0,30.0,-100.00,West,272,15.0,31.0,22,-99.99,,,-99.99,,2013-06-13 15:01:00,
2013-06-13 09:11:00,70.0,30.0,-100.00,West,264,15.0,26.0,21,-99.99,,,-99.99,,2013-06-13 15:11:00,
2013-06-13 09:21:00,71.0,30.0,-100.00,West,261,23.0,32.0,21,-99.99,,,-99.99,,2013-06-13 15:21:00,
2013-06-13 09:33:00,71.0,30.0,-100.00,West,261,23.0,32.0,21,-99.99,,,-99.99,,2013-06-13 15:33:00,
2013-06-13 09:43:00,71.0,30.0,-100.00,WSW,254,19.0,35.0,21,-99.99,,,-99.99,,2013-06-13 15:43:00,
2013-06-13 09:53:00,72.0,30.0,-100.00,West,261,25.0,36.0,21,-99.99,,,-99.99,,2013-06-13 15:53:00,
2013-06-13 10:01:00,71.0,30.0,-100.00,West,261,22.0,42.0,21,-99.99,,,-99.99,,2013-06-13 16:01:00,
2013-06-13 10:11:00,72.0,30.0,-100.00,West,268,23.0,41.0,21,-99.99,,,-99.99,,2013-06-13 16:11:00,
2013-06-13 10:22:00,72.0,30.0,-100.00,West,268,23.0,41.0,21,-99.99,,,-99.99,,2013-06-13 16:22:00,
2013-06-13 10:33:00,72.0,30.0,-100.00,WSW,252,22.0,40.0,21,-99.99,,,-99.99,,2013-06-13 16:33:00,
2013-06-13 10:43:00,72.0,31.0,-100.00,West,264,28.0,40.0,21,-99.99,,,-99.99,,2013-06-13 16:43:00,
2013-06-13 10:53:00,72.0,31.0,-100.00,West,264,28.0,40.0,21,-99.99,,,-99.99,,2013-06-13 16:53:00,
2013-06-13 11:02:00,72.0,31.0,-100.00,WSW,254,22.0,46.0,21,-99.99,,,-99.99,,2013-06-13 17:02:00,
2013-06-13 11:11:00,72.0,31.0,-100.00,West,277,29.0,45.0,22,-99.99,,,-99.99,,2013-06-13 17:11:00,
2013-06-13 11:24:00,72.0,27.0,-100.00,WSW,257,37.0,60.0,18,-99.99,,,-99.99,,2013-06-13 17:24:00,
2013-06-13 11:32:00,72.0,27.0,-100.00,WSW,257,37.0,60.0,18,-99.99,,,-99.99,,2013-06-13 17:32:00,
2013-06-13 11:43:00,73.0,26.0,-100.00,West,270,27.0,50.0,17,-99.99,,,-99.99,,2013-06-13 17:43:00,
2013-06-13 11:53:00,73.0,26.0,-100.00,West,270,27.0,50.0,17,-99.99,,,-99.99,,2013-06-13 17:53:00,
2013-06-13 12:02:00,73.0,24.0,-100.00,West,277,30.0,47.0,15,-99.99,,,-99.99,,2013-06-13 18:02:00,
2013-06-13 12:11:00,74.0,27.0,-100.00,West,275,30.0,48.0,17,-99.99,,,-99.99,,2013-06-13 18:11:00,
2013-06-13 12:22:00,74.0,27.0,-100.00,West,266,34.0,49.0,17,-99.99,,,-99.99,,2013-06-13 18:22:00,
2013-06-13 12:33:00,74.0,24.0,-100.00,West,267,23.0,51.0,15,-99.99,,,-99.99,,2013-06-13 18:33:00,
2013-06-13 12:43:00,74.0,22.0,-100.00,West,274,30.0,44.0,13,-99.99,,,-99.99,,2013-06-13 18:43:00,
2013-06-13 12:52:00,74.0,22.0,-100.00,West,274,30.0,44.0,13,-99.99,,,-99.99,,2013-06-13 18:52:00,
2013-06-13 13:01:00,75.0,22.0,-100.00,West,267,32.0,52.0,13,-99.99,,,-99.99,,2013-06-13 19:01:00,
2013-06-13 13:11:00,75.0,22.0,-100.00,West,260,25.0,63.0,14,-99.99,,,-99.99,,2013-06-13 19:11:00,
2013-06-13 13:22:00,76.0,21.0,-100.00,West,268,32.0,47.0,12,-99.99,,,-99.99,,2013-06-13 19:22:00,
2013-06-13 13:32:00,76.0,21.0,-100.00,West,268,32.0,47.0,12,-99.99,,,-99.99,,2013-06-13 19:32:00,
2013-06-13 13:43:00,76.0,19.0,-100.00,West,273,33.0,50.0,11,-99.99,,,-99.99,,2013-06-13 19:43:00,
2013-06-13 13:53:00,76.0,16.0,-100.00,West,276,30.0,41.0,10,-99.99,,,-99.99,,2013-06-13 19:53:00,
2013-06-13 14:01:00,76.0,16.0,-100.00,West,278,29.0,48.0,10,-99.99,,,-99.99,,2013-06-13 20:01:00,
2013-06-13 14:11:00,77.0,17.0,-100.00,West,273,28.0,41.0,10,-99.99,,,-99.99,,2013-06-13 20:11:00,
2013-06-13 14:22:00,77.0,19.0,-100.00,West,267,31.0,45.0,11,-99.99,,,-99.99,,2013-06-13 20:22:00,
2013-06-13 14:32:00,77.0,19.0,-100.00,West,267,31.0,45.0,11,-99.99,,,-99.99,,2013-06-13 20:32:00,
2013-06-13 14:43:00,77.0,21.0,-100.00,West,280,19.0,42.0,12,-99.99,,,-99.99,,2013-06-13 20:43:00,
2013-06-13 14:53:00,77.0,19.0,-100.00,West,271,20.0,45.0,10,-99.99,,,-99.99,,2013-06-13 20:53:00,
2013-06-13 15:01:00,78.0,19.0,-100.00,West,263,19.0,45.0,10,-99.99,,,-99.99,,2013-06-13 21:01:00,
2013-06-13 15:11:00,78.0,19.0,-100.00,West,274,20.0,31.0,10,-99.99,,,-99.99,,2013-06-13 21:11:00,
2013-06-13 15:22:00,78.0,17.0,-100.00,West,281,22.0,45.0,10,-99.99,,,-99.99,,2013-06-13 21:22:00,
2013-06-13 15:34:00,79.0,18.0,-100.00,SW,234,8.0,16.0,9,-99.99,,,-99.99,,2013-06-13 21:34:00,
2013-06-13 15:43:00,80.0,15.0,-100.00,WSW,253,17.0,34.0,8,-99.99,,,-99.99,,2013-06-13 21:43:00,
2013-06-13 15:52:00,80.0,15.0,-100.00,WSW,241,21.0,33.0,8,-99.99,,,-99.99,,2013-06-13 21:52:00,
2013-06-13 16:01:00,81.0,16.0,-100.00,West,264,28.0,36.0,8,-99.99,,,-99.99,,2013-06-13 22:01:00,
2013-06-13 16:11:00,81.0,16.0,-100.00,West,264,28.0,36.0,8,-99.99,,,-99.99,,2013-06-13 22:11:00,
2013-06-13 16:22:00,80.0,14.0,-100.00,West,260,28.0,52.0,8,-99.99,,,-99.99,,2013-06-13 22:22:00,
2013-06-13 16:32:00,81.0,13.0,-100.00,WSW,244,27.0,36.0,7,-99.99,,,-99.99,,2013-06-13 22:32:00,
2013-06-13 16:42:00,80.0,13.0,-100.00,West,271,19.0,45.0,8,-99.99,,,-99.99,,2013-06-13 22:42:00,
2013-06-13 16:52:00,80.0,13.0,-100.00,West,271,19.0,45.0,8,-99.99,,,-99.99,,2013-06-13 22:52:00,
2013-06-13 17:01:00,81.0,14.0,-100.00,West,264,23.0,31.0,7,-99.99,,,-99.99,,2013-06-13 23:01:00,
2013-06-13 17:11:00,81.0,12.0,-100.00,West,265,30.0,41.0,7,-99.99,,,-99.99,,2013-06-13 23:11:00,
2013-06-13 17:22:00,81.0,14.0,-100.00,WSW,257,26.0,38.0,7,-99.99,,,-99.99,,2013-06-13 23:22:00,
2013-06-13 17:32:00,81.0,14.0,-100.00,WSW,257,26.0,38.0,7,-99.99,,,-99.99,,2013-06-13 23:32:00,
2013-06-13 17:43:00,81.0,13.0,-100.00,WSW,238,27.0,43.0,7,-99.99,,,-99.99,,2013-06-13 23:43:00,
2013-06-13 17:52:00,81.0,13.0,-100.00,WSW,238,27.0,43.0,7,-99.99,,,-99.99,,2013-06-13 23:52:00,
2013-06-13 18:01:00,81.0,13.0,-100.00,West,261,31.0,48.0,7,-99.99,,,-99.99,,2013-06-14 00:01:00,
2013-06-13 18:11:00,81.0,13.0,-100.00,WSW,247,33.0,41.0,7,-99.99,,,-99.99,,2013-06-14 00:11:00,
2013-06-13 18:22:00,81.0,13.0,-100.00,WSW,254,29.0,43.0,7,-99.99,,,-99.99,,2013-06-14 00:22:00,
2013-06-13 18:33:00,81.0,11.0,-100.00,WSW,244,30.0,46.0,7,-99.99,,,-99.99,,2013-06-14 00:33:00,
2013-06-13 18:43:00,80.0,13.0,-100.00,SW,232,25.0,42.0,7,-99.99,,,-99.99,,2013-06-14 00:43:00,
2013-06-13 18:53:00,80.0,13.0,-100.00,SW,232,25.0,42.0,7,-99.99,,,-99.99,,2013-06-14 00:53:00,
2013-06-13 19:01:00,80.0,13.0,-100.00,WSW,251,24.0,39.0,7,-99.99,,,-99.99,,2013-06-14 01:01:00,
2013-06-13 19:11:00,79.0,13.0,-100.00,WSW,252,26.0,39.0,8,-99.99,,,-99.99,,2013-06-14 01:11:00,
2013-06-13 19:22:00,79.0,12.0,-100.00,WSW,244,24.0,31.0,7,-99.99,,,-99.99,,2013-06-14 01:22:00,
2013-06-13 19:32:00,79.0,12.0,-100.00,WSW,244,24.0,31.0,7,-99.99,,,-99.99,,2013-06-14 01:32:00,
2013-06-13 19:43:00,73.0,32.0,-100.00,NNW,333,18.0,24.0,21,-99.99,,,-99.99,,2013-06-14 01:43:00,
2013-06-13 19:52:00,73.0,32.0,-100.00,NNW,333,18.0,24.0,21,-99.99,,,-99.99,,2013-06-14 01:52:00,
2013-06-13 20:01:00,72.0,34.0,-100.00,NNW,337,15.0,22.0,24,-99.99,,,-99.99,,2013-06-14 02:01:00,
2013-06-13 20:11:00,70.0,34.0,-100.00,NNW,338,19.0,27.0,26,-99.99,,,-99.99,,2013-06-14 02:11:00,
2013-06-13 20:22:00,67.0,33.0,-100.00,North,0,22.0,26.0,28,-99.99,,,-99.99,,2013-06-14 02:22:00,
2013-06-13 20:32:00,67.0,33.0,-100.00,North,0,22.0,26.0,28,-99.99,,,-99.99,,2013-06-14 02:32:00,
2013-06-13 20:43:00,66.0,31.0,-100.00,NNE,17,19.0,27.0,27,-99.99,,,-99.99,,2013-06-14 02:43:00,
2013-06-13 20:52:00,64.0,28.0,-100.00,NE,42,15.0,40.0,25,-99.99,,,-99.99,,2013-06-14 02:52:00,
2013-06-13 21:02:00,64.0,30.0,-100.00,NE,42,20.0,31.0,27,-99.99,,,-99.99,,2013-06-14 03:02:00,
2013-06-13 21:11:00,64.0,30.0,-100.00,NE,42,20.0,31.0,27,-99.99,,,-99.99,,2013-06-14 03:11:00,
2013-06-13 21:22:00,62.0,34.0,-100.00,NNE,25,19.0,39.0,35,-99.99,,,-99.99,,2013-06-14 03:22:00,
2013-06-13 21:34:00,61.0,35.0,-100.00,NNE,26,9.0,30.0,37,-99.99,,,-99.99,,2013-06-14 03:34:00,
2013-06-13 21:43:00,61.0,30.0,-100.00,NE,51,15.0,23.0,30,-99.99,,,-99.99,,2013-06-14 03:43:00,
2013-06-13 21:52:00,61.0,30.0,-100.00,NE,51,15.0,23.0,30,-99.99,,,-99.99,,2013-06-14 03:52:00,
2013-06-13 22:01:00,60.0,31.0,-100.00,NNE,26,8.0,16.0,33,-99.99,,,-99.99,,2013-06-14 04:01:00,
2013-06-13 22:12:00,60.0,30.0,-100.00,NNE,25,10.0,16.0,31,-99.99,,,-99.99,,2013-06-14 04:12:00,
2013-06-13 22:22:00,58.0,35.0,-100.00,NE,55,13.0,17.0,40,-99.99,,,-99.99,,2013-06-14 04:22:00,
2013-06-13 22:33:00,58.0,35.0,-100.00,NE,55,13.0,17.0,40,-99.99,,,-99.99,,2013-06-14 04:33:00,
2013-06-13 22:43:00,59.0,31.0,-100.00,ENE,58,6.0,12.0,34,-99.99,,,-99.99,,2013-06-14 04:43:00,
2013-06-13 22:53:00,59.0,31.0,-100.00,ENE,58,6.0,12.0,34,-99.99,,,-99.99,,2013-06-14 04:53:00,
2013-06-13 23:01:00,59.0,28.0,-100.00,North,355,10.0,16.0,30,-99.99,,,-99.99,,2013-06-14 05:01:00,
2013-06-13 23:11:00,59.0,28.0,-100.00,North,355,10.0,16.0,30,-99.99,,,-99.99,,2013-06-14 05:11:00,
2013-06-13 23:22:00,59.0,28.0,-100.00,North,355,10.0,16.0,30,-99.99,,,-99.99,,2013-06-14 05:22:00,
2013-06-13 23:33:00,58.0,27.0,-100.00,North,11,7.0,11.0,30,-99.99,,,-99.99,,2013-06-14 05:33:00,
2013-06-13 23:43:00,58.0,27.0,-100.00,ENE,76,6.0,9.0,30,-99.99,,,-99.99,,2013-06-14 05:43:00,
2013-06-13 23:52:00,58.0,27.0,-100.00,ENE,76,6.0,9.0,30,-99.99,,,-99.99,,2013-06-14 05:52:00,